Time;durP1;ratioP1;P1;durP2;ratioP2;P2;SDS_P1;SDS_P2;PMS_P1;PMS_P2;Temp;Humidity;BMP_temperature;BMP_pressure;BME280_temperature;BME280_humidity;BME280_pressure;Samples;Min_cycle;Max_cycle;Signal;HPM_P1;HPM_P2
2022/07/09 00:00:06;;;;;;;7.30;4.53;;;20.50;99.90;;;;;;5093826;28;20519;-74
2022/07/09 00:02:31;;;;;;;5.45;4.20;;;20.40;99.90;;;;;;5094109;28;20028;-74
2022/07/09 00:04:57;;;;;;;6.00;4.10;;;20.40;99.90;;;;;;5082883;28;20081;-74
2022/07/09 00:07:23;;;;;;;4.85;3.83;;;20.40;99.90;;;;;;5073789;28;20028;-74
2022/07/09 00:09:48;;;;;;;5.00;4.00;;;20.40;99.90;;;;;;5073262;28;20111;-74
2022/07/09 00:12:14;;;;;;;7.30;4.28;;;20.30;99.90;;;;;;5091923;28;22574;-74
2022/07/09 00:14:40;;;;;;;4.95;3.63;;;20.30;99.90;;;;;;5093108;28;20502;-74
2022/07/09 00:17:05;;;;;;;5.25;4.00;;;20.30;99.90;;;;;;5093226;28;20419;-74
2022/07/09 00:19:31;;;;;;;6.60;4.03;;;20.30;99.90;;;;;;5093729;28;20035;-73
2022/07/09 00:21:57;;;;;;;4.70;3.80;;;20.20;99.90;;;;;;5095662;28;20107;-73
2022/07/09 00:24:22;;;;;;;6.82;4.28;;;20.20;99.90;;;;;;5092666;28;20024;-74
2022/07/09 00:26:48;;;;;;;4.70;4.25;;;20.20;99.90;;;;;;5093242;28;20028;-74
2022/07/09 00:29:14;;;;;;;5.90;4.45;;;20.20;99.90;;;;;;5093129;28;20508;-73
2022/07/09 00:31:40;;;;;;;7.60;4.47;;;20.20;99.90;;;;;;5093155;28;20016;-73
2022/07/09 00:34:05;;;;;;;5.97;5.00;;;20.10;99.90;;;;;;5091494;28;20391;-73
2022/07/09 00:36:31;;;;;;;7.28;6.00;;;20.10;99.90;;;;;;5072856;28;20050;-74
2022/07/09 00:38:57;;;;;;;9.23;6.38;;;20.10;99.90;;;;;;5074255;28;20028;-73
2022/07/09 00:41:22;;;;;;;9.43;6.28;;;20.10;99.90;;;;;;5093264;28;20081;-74
2022/07/09 00:43:49;;;;;;;8.10;7.20;;;20.00;99.90;;;;;;5093226;28;20484;-74
2022/07/09 00:46:16;;;;;;;7.13;6.38;;;20.00;99.90;;;;;;5093368;28;20020;-73
2022/07/09 00:48:43;;;;;;;7.03;5.97;;;20.00;99.90;;;;;;5092704;28;20073;-73
2022/07/09 00:51:09;;;;;;;10.55;6.95;;;20.00;99.90;;;;;;5076811;28;20024;-73
2022/07/09 00:53:35;;;;;;;10.25;8.00;;;19.90;99.90;;;;;;5072867;28;20041;-73
2022/07/09 00:56:02;;;;;;;10.63;9.40;;;19.90;99.90;;;;;;5072762;28;20029;-73
2022/07/09 00:58:28;;;;;;;9.68;7.63;;;19.90;99.90;;;;;;5071658;28;20082;-73
2022/07/09 01:00:55;;;;;;;8.05;6.82;;;19.90;99.90;;;;;;5072889;28;20521;-74
2022/07/09 01:03:20;;;;;;;7.45;6.70;;;19.80;99.90;;;;;;5089114;28;20020;-73
2022/07/09 01:05:46;;;;;;;7.32;5.45;;;19.80;99.90;;;;;;5093272;28;20020;-73
2022/07/09 01:08:12;;;;;;;7.78;5.85;;;19.70;99.90;;;;;;5093252;28;20106;-73
2022/07/09 01:10:38;;;;;;;8.27;6.65;;;19.70;99.90;;;;;;5091452;28;20358;-73
2022/07/09 01:13:04;;;;;;;8.40;7.20;;;19.70;99.90;;;;;;5092763;28;20028;-73
2022/07/09 01:15:31;;;;;;;10.88;8.00;;;19.70;99.90;;;;;;5092570;28;20051;-73
2022/07/09 01:17:58;;;;;;;10.82;8.38;;;19.70;99.90;;;;;;5092756;28;20032;-73
2022/07/09 01:20:31;;;;;;;10.48;9.35;;;19.70;99.90;;;;;;5092233;28;20056;-73
2022/07/09 01:22:58;;;;;;;11.10;9.65;;;19.60;99.90;;;;;;5094720;28;20125;-73
2022/07/09 01:25:38;;;;;;;14.20;10.27;;;19.60;99.90;;;;;;5097052;28;20032;-73
2022/07/09 01:28:05;;;;;;;11.82;10.30;;;19.60;99.90;;;;;;5096885;28;20103;-73
2022/07/09 01:30:33;;;;;;;11.38;9.32;;;19.60;99.90;;;;;;5097276;28;20016;-73
2022/07/09 01:32:59;;;;;;;13.85;10.63;;;19.60;99.90;;;;;;5096173;28;20039;-73
2022/07/09 01:35:26;;;;;;;16.52;11.88;;;19.60;99.90;;;;;;5095601;28;20440;-73
2022/07/09 01:37:52;;;;;;;15.43;10.88;;;19.50;99.90;;;;;;5096582;28;20103;-73
2022/07/09 01:40:19;;;;;;;15.40;11.20;;;19.50;99.90;;;;;;5096594;28;20016;-73
2022/07/09 01:42:45;;;;;;;16.92;12.93;;;19.50;99.90;;;;;;5096991;28;20020;-73
2022/07/09 01:45:11;;;;;;;15.15;11.18;;;19.50;99.90;;;;;;5095153;28;20031;-73
2022/07/09 01:47:36;;;;;;;18.33;12.30;;;19.40;99.90;;;;;;5096328;28;20028;-73
2022/07/09 01:50:02;;;;;;;13.93;12.23;;;19.40;99.90;;;;;;5096376;28;20032;-73
2022/07/09 01:52:30;;;;;;;16.40;12.50;;;19.40;99.90;;;;;;5096437;28;20017;-73
2022/07/09 01:54:55;;;;;;;14.75;11.45;;;19.40;99.90;;;;;;5096211;28;20036;-73
2022/07/09 01:57:21;;;;;;;17.42;12.48;;;19.30;99.90;;;;;;5096332;28;20499;-73
2022/07/09 01:59:46;;;;;;;13.45;11.55;;;19.30;99.90;;;;;;5096398;28;20032;-73
2022/07/09 02:02:12;;;;;;;15.18;11.75;;;19.30;99.90;;;;;;5096403;28;20389;-73
2022/07/09 02:04:38;;;;;;;15.07;12.07;;;19.30;99.90;;;;;;5096089;28;20431;-73
2022/07/09 02:07:04;;;;;;;19.95;13.85;;;19.20;99.90;;;;;;5096206;28;20469;-73
2022/07/09 02:09:30;;;;;;;13.90;11.40;;;19.20;99.90;;;;;;5095686;28;20042;-73
2022/07/09 02:11:55;;;;;;;17.73;13.23;;;19.20;99.90;;;;;;5096312;28;20464;-73
2022/07/09 02:14:22;;;;;;;15.38;13.07;;;19.20;99.90;;;;;;5096213;28;20115;-73
2022/07/09 02:16:47;;;;;;;14.23;12.73;;;19.20;99.90;;;;;;5096489;28;20382;-73
2022/07/09 02:19:14;;;;;;;15.98;13.85;;;19.10;99.90;;;;;;5096201;28;20047;-73
2022/07/09 02:21:40;;;;;;;15.77;14.05;;;19.10;99.90;;;;;;5095953;28;20077;-73
2022/07/09 02:24:06;;;;;;;20.00;14.68;;;19.10;99.90;;;;;;5095562;28;20020;-73
2022/07/09 02:26:31;;;;;;;19.38;14.43;;;19.00;99.90;;;;;;5095940;28;20040;-73
2022/07/09 02:28:58;;;;;;;19.08;16.08;;;19.10;99.90;;;;;;5096254;28;20016;-73
2022/07/09 02:31:24;;;;;;;16.40;13.20;;;19.00;99.90;;;;;;5085288;28;20432;-73
2022/07/09 02:33:50;;;;;;;14.80;13.25;;;19.00;99.90;;;;;;5080023;28;20035;-73
2022/07/09 02:36:15;;;;;;;15.38;12.98;;;19.00;99.90;;;;;;5090334;28;20024;-73
2022/07/09 02:38:41;;;;;;;16.80;15.00;;;19.00;99.90;;;;;;5094920;28;20039;-73
2022/07/09 02:41:07;;;;;;;18.65;13.63;;;19.00;99.90;;;;;;5094818;28;20020;-73
2022/07/09 02:43:32;;;;;;;21.88;16.63;;;18.90;99.90;;;;;;5093727;28;20028;-73
2022/07/09 02:45:58;;;;;;;20.10;15.95;;;19.00;99.90;;;;;;5095299;28;20097;-72
2022/07/09 02:48:27;;;;;;;20.45;16.88;;;18.90;99.90;;;;;;5095685;28;20073;-72
2022/07/09 02:50:53;;;;;;;15.77;14.15;;;18.90;99.90;;;;;;5095451;28;20024;-72
2022/07/09 02:53:20;;;;;;;14.43;12.65;;;18.90;99.90;;;;;;5095010;28;20050;-73
2022/07/09 02:55:46;;;;;;;15.65;10.50;;;18.80;99.90;;;;;;5094914;28;20050;-72
2022/07/09 02:58:12;;;;;;;13.32;10.93;;;18.70;99.90;;;;;;5095052;28;20389;-73
2022/07/09 03:00:42;;;;;;;14.93;11.95;;;18.70;99.90;;;;;;5095273;28;20032;-73
2022/07/09 03:03:08;;;;;;;17.00;14.82;;;18.70;99.90;;;;;;5092199;28;20387;-72
2022/07/09 03:05:34;;;;;;;21.25;16.23;;;18.70;99.90;;;;;;5074700;28;20067;-73
2022/07/09 03:08:01;;;;;;;23.10;15.48;;;18.70;99.90;;;;;;5094422;28;20072;-73
2022/07/09 03:10:27;;;;;;;20.65;15.13;;;18.70;99.90;;;;;;5115438;28;20481;-72
2022/07/09 03:12:53;;;;;;;19.67;14.40;;;18.70;99.90;;;;;;5115576;28;20091;-73
2022/07/09 03:15:18;;;;;;;17.00;14.15;;;18.70;99.90;;;;;;5094177;28;20024;-73
2022/07/09 03:17:45;;;;;;;16.55;12.25;;;18.60;99.90;;;;;;5095128;28;20077;-73
2022/07/09 03:20:12;;;;;;;17.52;13.57;;;18.50;99.90;;;;;;5094209;28;20028;-73
2022/07/09 03:22:38;;;;;;;18.33;14.00;;;18.50;99.90;;;;;;5094582;28;20017;-72
2022/07/09 03:25:05;;;;;;;16.40;14.38;;;18.50;99.90;;;;;;5094834;28;20039;-73
2022/07/09 03:27:31;;;;;;;16.23;14.52;;;18.50;99.90;;;;;;5094811;28;20021;-72
2022/07/09 03:29:57;;;;;;;19.48;13.75;;;18.50;99.90;;;;;;5094211;28;20089;-72
2022/07/09 03:32:23;;;;;;;17.75;14.02;;;18.50;99.90;;;;;;5094803;28;20028;-73
2022/07/09 03:34:48;;;;;;;19.17;15.32;;;18.50;99.90;;;;;;5094501;28;20035;-73
2022/07/09 03:37:14;;;;;;;16.85;15.05;;;18.50;99.90;;;;;;5094643;28;20077;-72
2022/07/09 03:39:40;;;;;;;20.17;16.23;;;18.50;99.90;;;;;;5098823;28;20012;-73
2022/07/09 03:42:09;;;;;;;19.13;15.25;;;18.40;99.90;;;;;;5108693;28;20427;-73
2022/07/09 03:44:34;;;;;;;19.25;15.38;;;18.40;99.90;;;;;;5094647;28;20108;-72
2022/07/09 03:47:00;;;;;;;16.77;14.98;;;18.40;99.90;;;;;;5093621;28;20461;-72
2022/07/09 03:49:26;;;;;;;19.33;15.68;;;18.30;99.90;;;;;;5093589;28;20560;-71
2022/07/09 03:51:52;;;;;;;22.25;17.00;;;18.30;99.90;;;;;;5092404;28;20089;-72
2022/07/09 03:54:18;;;;;;;17.27;15.30;;;18.30;99.90;;;;;;5093106;28;20075;-73
2022/07/09 03:56:44;;;;;;;18.63;15.43;;;18.30;99.90;;;;;;5094079;28;20388;-73
2022/07/09 03:59:10;;;;;;;18.23;15.63;;;18.30;99.90;;;;;;5094061;28;20058;-73
2022/07/09 04:01:36;;;;;;;23.92;17.35;;;18.30;99.90;;;;;;5093452;28;20024;-72
2022/07/09 04:04:01;;;;;;;21.75;18.48;;;18.30;99.90;;;;;;5094061;28;20031;-73
2022/07/09 04:06:27;;;;;;;23.42;19.85;;;18.30;99.90;;;;;;5093899;28;20388;-73
2022/07/09 04:08:53;;;;;;;26.77;18.95;;;18.30;99.90;;;;;;5093700;28;20491;-73
2022/07/09 04:11:18;;;;;;;26.08;20.38;;;18.30;99.90;;;;;;5093760;28;20020;-73
2022/07/09 04:13:45;;;;;;;25.80;20.42;;;18.20;99.90;;;;;;5093733;28;20047;-73
2022/07/09 04:16:10;;;;;;;29.17;20.65;;;18.30;99.90;;;;;;5093899;28;20020;-73
2022/07/09 04:18:36;;;;;;;25.92;21.38;;;18.30;99.90;;;;;;5093980;28;20050;-72
2022/07/09 04:21:02;;;;;;;24.92;21.85;;;18.40;99.90;;;;;;5091399;28;20077;-72
2022/07/09 04:23:28;;;;;;;25.98;21.08;;;18.30;99.90;;;;;;5093986;28;20028;-72
2022/07/09 04:25:53;;;;;;;29.48;22.27;;;18.30;99.90;;;;;;5092164;28;20077;-73
2022/07/09 04:28:20;;;;;;;33.58;24.58;;;18.40;99.90;;;;;;5094087;28;20491;-73
2022/07/09 04:30:48;;;;;;;34.90;24.25;;;18.40;99.90;;;;;;5093610;28;20017;-73
2022/07/09 04:33:14;;;;;;;24.65;20.15;;;18.40;99.90;;;;;;5093698;28;20118;-73
2022/07/09 04:35:40;;;;;;;22.23;15.77;;;18.40;99.90;;;;;;5093302;28;20039;-73
2022/07/09 04:38:06;;;;;;;24.48;18.65;;;18.50;99.90;;;;;;5093845;28;20358;-73
2022/07/09 04:40:31;;;;;;;31.13;21.52;;;18.50;99.90;;;;;;5093722;28;20047;-72
2022/07/09 04:42:57;;;;;;;25.17;20.00;;;18.50;99.90;;;;;;5093217;28;20028;-73
2022/07/09 04:45:23;;;;;;;23.92;17.95;;;18.50;99.90;;;;;;5093557;28;20443;-72
2022/07/09 04:47:48;;;;;;;23.60;20.73;;;18.60;99.90;;;;;;5082894;28;20542;-72
2022/07/09 04:50:14;;;;;;;26.75;20.50;;;18.60;99.90;;;;;;5075011;28;20432;-72
2022/07/09 04:52:40;;;;;;;29.70;21.90;;;18.70;99.90;;;;;;5091824;28;20059;-73
2022/07/09 04:55:07;;;;;;;21.48;16.80;;;18.70;99.90;;;;;;5092106;28;20111;-73
2022/07/09 04:57:33;;;;;;;21.40;15.80;;;18.70;99.90;;;;;;5092327;28;20024;-73
2022/07/09 05:00:00;;;;;;;19.27;16.75;;;18.70;99.90;;;;;;5093282;28;20024;-73
2022/07/09 05:02:26;;;;;;;21.13;16.17;;;18.70;99.90;;;;;;5093199;28;20028;-72
2022/07/09 05:04:52;;;;;;;18.30;15.70;;;18.70;99.90;;;;;;5093037;28;20536;-73
2022/07/09 05:07:17;;;;;;;24.05;20.10;;;18.70;99.90;;;;;;5092931;28;20106;-72
2022/07/09 05:09:43;;;;;;;33.53;26.75;;;18.80;99.90;;;;;;5093211;28;20095;-73
2022/07/09 05:12:10;;;;;;;37.15;26.27;;;18.80;99.90;;;;;;5091564;28;20028;-73
2022/07/09 05:14:37;;;;;;;35.10;25.70;;;18.90;99.90;;;;;;5090152;28;20028;-72
2022/07/09 05:17:04;;;;;;;41.50;30.42;;;18.90;99.90;;;;;;5092598;28;20035;-73
2022/07/09 05:19:30;;;;;;;44.97;31.60;;;19.00;99.90;;;;;;5087176;28;20028;-73
2022/07/09 05:21:55;;;;;;;44.70;33.22;;;19.00;99.90;;;;;;5091626;28;20076;-73
2022/07/09 05:24:21;;;;;;;50.63;34.88;;;18.90;99.90;;;;;;5092252;28;20103;-73
2022/07/09 05:26:47;;;;;;;29.77;20.30;;;19.00;99.90;;;;;;5093047;28;20385;-72
2022/07/09 05:29:13;;;;;;;33.63;21.55;;;19.00;99.90;;;;;;5093025;28;20024;-73
2022/07/09 05:31:38;;;;;;;40.42;28.35;;;19.00;99.90;;;;;;5092576;28;20124;-73
2022/07/09 05:34:05;;;;;;;49.63;32.78;;;19.00;99.90;;;;;;5092780;28;20538;-73
2022/07/09 05:36:31;;;;;;;30.35;24.33;;;19.10;99.90;;;;;;5092929;28;20066;-72
2022/07/09 05:38:58;;;;;;;41.92;31.67;;;19.10;99.90;;;;;;5092259;28;20020;-72
2022/07/09 05:41:24;;;;;;;46.67;32.85;;;19.10;99.90;;;;;;5092823;28;20453;-73
2022/07/09 05:43:51;;;;;;;41.80;32.40;;;19.20;99.90;;;;;;5092780;28;20066;-74
2022/07/09 05:46:17;;;;;;;41.15;30.48;;;19.30;99.90;;;;;;5092863;28;20104;-73
2022/07/09 05:48:43;;;;;;;47.47;32.10;;;19.30;99.90;;;;;;5089812;28;20107;-73
2022/07/09 05:51:09;;;;;;;45.83;29.40;;;19.40;99.90;;;;;;5090921;28;20095;-74
2022/07/09 05:53:34;;;;;;;41.97;30.70;;;19.50;99.90;;;;;;5085662;28;20040;-73
2022/07/09 05:56:00;;;;;;;42.60;30.42;;;19.60;99.90;;;;;;5072498;28;20028;-74
2022/07/09 05:58:26;;;;;;;39.83;30.75;;;19.70;99.90;;;;;;5072399;28;20393;-74
2022/07/09 06:00:52;;;;;;;37.33;28.25;;;19.80;99.90;;;;;;5071776;28;20033;-74
2022/07/09 06:03:17;;;;;;;42.42;30.48;;;19.90;99.90;;;;;;5072485;28;20381;-72
2022/07/09 06:05:43;;;;;;;39.10;30.05;;;19.90;99.90;;;;;;5074457;28;20028;-73
2022/07/09 06:08:09;;;;;;;38.17;28.38;;;20.00;99.90;;;;;;5091751;28;20020;-73
2022/07/09 06:10:35;;;;;;;34.88;27.85;;;20.00;99.90;;;;;;5092678;28;20021;-74
2022/07/09 06:13:01;;;;;;;35.10;27.85;;;20.10;99.90;;;;;;5075830;28;20029;-73
2022/07/09 06:15:27;;;;;;;40.55;29.95;;;20.10;99.90;;;;;;5075527;28;20033;-73
2022/07/09 06:17:53;;;;;;;32.90;24.65;;;20.20;99.90;;;;;;5077680;28;20564;-73
2022/07/09 06:20:19;;;;;;;32.05;23.00;;;20.30;99.90;;;;;;5094256;28;20107;-72
2022/07/09 06:22:44;;;;;;;27.30;23.27;;;20.40;99.90;;;;;;5095548;28;20080;-72
2022/07/09 06:25:10;;;;;;;29.92;23.42;;;20.50;99.90;;;;;;5096116;28;20032;-73
2022/07/09 06:27:36;;;;;;;27.42;22.60;;;20.50;99.90;;;;;;5093223;28;20035;-75
2022/07/09 06:30:02;;;;;;;26.45;20.95;;;20.50;99.90;;;;;;5090770;28;20028;-71
2022/07/09 06:32:28;;;;;;;21.23;19.02;;;20.50;99.90;;;;;;5083111;28;20028;-71
2022/07/09 06:34:54;;;;;;;21.95;17.65;;;20.50;99.90;;;;;;5087826;28;20035;-72
2022/07/09 06:37:19;;;;;;;25.08;18.23;;;20.60;99.90;;;;;;5083710;28;20058;-72
2022/07/09 06:39:45;;;;;;;23.17;19.48;;;20.60;99.90;;;;;;5082552;28;20067;-71
2022/07/09 06:42:12;;;;;;;27.42;18.13;;;20.50;99.90;;;;;;5089024;28;20024;-72
2022/07/09 06:44:39;;;;;;;20.08;16.98;;;20.60;99.90;;;;;;5088294;28;20496;-72
2022/07/09 06:47:05;;;;;;;24.42;17.75;;;20.70;99.90;;;;;;5082401;28;20077;-72
2022/07/09 06:49:31;;;;;;;30.95;21.20;;;20.70;99.90;;;;;;5088598;28;20492;-72
2022/07/09 06:51:57;;;;;;;31.00;21.38;;;20.80;99.90;;;;;;5089871;28;20031;-71
2022/07/09 06:54:23;;;;;;;29.83;21.58;;;20.80;99.90;;;;;;5086917;28;20032;-71
2022/07/09 06:56:49;;;;;;;25.08;20.58;;;20.80;99.90;;;;;;5081288;28;20441;-71
2022/07/09 06:59:14;;;;;;;28.00;19.45;;;20.90;99.90;;;;;;5083264;28;20043;-72
2022/07/09 07:01:40;;;;;;;22.95;19.23;;;20.90;99.90;;;;;;5086719;28;20012;-72
2022/07/09 07:04:06;;;;;;;24.33;17.58;;;21.10;99.90;;;;;;5083572;28;20551;-72
2022/07/09 07:06:32;;;;;;;23.42;16.92;;;21.20;99.90;;;;;;5084844;28;20118;-72
2022/07/09 07:08:58;;;;;;;18.75;15.95;;;21.30;99.90;;;;;;5088050;28;20020;-72
2022/07/09 07:11:24;;;;;;;18.75;14.70;;;21.30;99.90;;;;;;5089734;28;20028;-72
2022/07/09 07:13:50;;;;;;;18.48;13.52;;;21.40;99.90;;;;;;5085501;28;20150;-72
2022/07/09 07:16:17;;;;;;;18.02;13.98;;;21.30;99.90;;;;;;5086827;28;20036;-71
2022/07/09 07:18:42;;;;;;;14.38;12.23;;;21.40;99.90;;;;;;5092147;28;20523;-70
2022/07/09 07:21:08;;;;;;;18.20;13.90;;;21.40;99.90;;;;;;5084299;28;20109;-72
2022/07/09 07:23:34;;;;;;;16.52;11.70;;;21.40;99.90;;;;;;5087068;28;20472;-72
2022/07/09 07:26:00;;;;;;;17.67;12.88;;;21.60;99.90;;;;;;5087886;28;21012;-73
2022/07/09 07:28:26;;;;;;;15.73;13.05;;;21.80;99.90;;;;;;5088504;28;20047;-72
2022/07/09 07:30:52;;;;;;;18.48;12.60;;;21.70;99.90;;;;;;5084695;28;20021;-72
2022/07/09 07:33:17;;;;;;;20.58;14.30;;;21.80;99.90;;;;;;5083284;28;20071;-72
2022/07/09 07:35:46;;;;;;;22.00;16.27;;;21.90;99.90;;;;;;5081879;28;20016;-72
2022/07/09 07:38:12;;;;;;;20.27;16.48;;;22.00;99.90;;;;;;5081659;28;20028;-72
2022/07/09 07:40:37;;;;;;;24.25;18.52;;;22.10;99.90;;;;;;5083186;28;20518;-72
2022/07/09 07:43:03;;;;;;;24.88;17.95;;;22.00;99.90;;;;;;5085075;28;20027;-71
2022/07/09 07:45:30;;;;;;;19.85;15.75;;;22.10;99.90;;;;;;5086278;28;20473;-70
2022/07/09 07:47:56;;;;;;;18.30;11.70;;;22.10;99.90;;;;;;5079758;28;21566;-72
2022/07/09 07:50:22;;;;;;;14.10;11.32;;;22.30;99.90;;;;;;5081442;28;20029;-73
2022/07/09 07:52:47;;;;;;;13.50;10.52;;;22.30;99.90;;;;;;5083209;28;20422;-72
2022/07/09 07:55:13;;;;;;;14.27;11.32;;;22.30;99.90;;;;;;5082996;28;20039;-72
2022/07/09 07:57:39;;;;;;;17.70;11.65;;;22.40;99.90;;;;;;5082496;28;20032;-72
2022/07/09 08:00:05;;;;;;;15.00;13.25;;;22.60;99.90;;;;;;5082266;28;20477;-71
2022/07/09 08:02:31;;;;;;;16.98;12.85;;;22.70;99.90;;;;;;5085247;28;20021;-73
2022/07/09 08:04:57;;;;;;;14.20;11.50;;;22.90;99.90;;;;;;5090044;28;20552;-71
2022/07/09 08:07:23;;;;;;;14.50;12.52;;;23.00;99.90;;;;;;5084970;28;20023;-73
2022/07/09 08:09:48;;;;;;;18.10;13.60;;;23.00;99.90;;;;;;5090867;28;20024;-73
2022/07/09 08:12:14;;;;;;;20.35;14.43;;;23.20;99.90;;;;;;5089836;28;20102;-73
2022/07/09 08:14:40;;;;;;;16.75;12.73;;;23.20;99.90;;;;;;5079867;28;20066;-73
2022/07/09 08:17:05;;;;;;;15.00;12.35;;;23.30;99.90;;;;;;5081025;28;20446;-73
2022/07/09 08:19:31;;;;;;;17.45;11.73;;;23.30;99.90;;;;;;5080265;28;20024;-72
2022/07/09 08:21:57;;;;;;;13.50;11.95;;;23.40;99.90;;;;;;5081541;28;20424;-73
2022/07/09 08:24:22;;;;;;;14.77;11.27;;;23.60;99.90;;;;;;5085156;28;20380;-73
2022/07/09 08:26:48;;;;;;;9.80;8.10;;;23.80;99.90;;;;;;5087834;28;20120;-73
2022/07/09 08:29:14;;;;;;;12.23;9.05;;;24.00;99.90;;;;;;5082482;28;20020;-72
2022/07/09 08:31:39;;;;;;;9.52;7.65;;;24.00;99.90;;;;;;5085077;28;20086;-73
2022/07/09 08:34:05;;;;;;;9.98;8.13;;;24.10;99.90;;;;;;5083192;28;20085;-72
2022/07/09 08:36:31;;;;;;;11.15;7.43;;;24.00;99.90;;;;;;5086368;28;20085;-73
2022/07/09 08:38:57;;;;;;;11.65;8.32;;;24.00;99.90;;;;;;5087875;28;20406;-72
2022/07/09 08:41:23;;;;;;;11.48;8.05;;;24.20;99.90;;;;;;5080547;28;20529;-73
2022/07/09 08:43:52;;;;;;;10.45;7.75;;;24.40;99.90;;;;;;5086927;28;20028;-73
2022/07/09 08:46:19;;;;;;;11.75;8.20;;;24.40;99.90;;;;;;5092143;28;20074;-73
2022/07/09 08:48:45;;;;;;;11.43;9.85;;;24.30;99.90;;;;;;5087055;28;20036;-73
2022/07/09 08:51:13;;;;;;;13.70;10.73;;;24.30;99.90;;;;;;5085549;28;20099;-72
2022/07/09 08:53:44;;;;;;;12.95;10.07;;;24.30;99.90;;;;;;5083903;28;20043;-73
2022/07/09 08:56:11;;;;;;;11.20;8.30;;;24.30;99.90;;;;;;5083461;28;20031;-72
2022/07/09 08:58:38;;;;;;;13.52;10.52;;;24.40;99.90;;;;;;5084405;28;20067;-73
2022/07/09 09:01:06;;;;;;;13.05;9.63;;;24.50;99.90;;;;;;5078691;28;20024;-73
2022/07/09 09:03:32;;;;;;;12.60;10.43;;;24.40;99.90;;;;;;5081992;28;20054;-73
2022/07/09 09:06:01;;;;;;;11.57;9.20;;;24.60;99.90;;;;;;5086181;28;20503;-73
2022/07/09 09:08:27;;;;;;;11.40;9.45;;;24.50;99.90;;;;;;5083797;28;20081;-72
2022/07/09 09:10:53;;;;;;;14.40;9.10;;;24.30;99.90;;;;;;5082846;28;20031;-73
2022/07/09 09:13:19;;;;;;;14.15;9.43;;;24.40;99.90;;;;;;5079117;28;20362;-72
2022/07/09 09:15:44;;;;;;;11.25;8.65;;;24.40;99.90;;;;;;5079131;28;20058;-72
2022/07/09 09:18:11;;;;;;;14.55;10.20;;;24.50;99.90;;;;;;5079974;28;20029;-72
2022/07/09 09:20:38;;;;;;;11.20;9.82;;;24.60;99.90;;;;;;5083793;28;20028;-72
2022/07/09 09:23:09;;;;;;;13.85;10.18;;;24.60;99.90;;;;;;5084648;28;20012;-73
2022/07/09 09:25:35;;;;;;;12.25;10.85;;;24.60;99.90;;;;;;5085645;28;20024;-73
2022/07/09 09:28:01;;;;;;;12.70;9.55;;;24.80;99.90;;;;;;5088435;28;20354;-74
2022/07/09 09:30:29;;;;;;;11.82;8.30;;;24.90;99.90;;;;;;5076964;28;20452;-73
2022/07/09 09:32:59;;;;;;;16.75;10.80;;;25.10;99.90;;;;;;5078510;28;20364;-74
2022/07/09 09:35:35;;;;;;;11.30;9.50;;;25.10;99.90;;;;;;5083782;28;20059;-73
2022/07/09 09:38:01;;;;;;;15.80;11.05;;;24.90;99.90;;;;;;5084573;28;20020;-72
2022/07/09 09:40:27;;;;;;;13.13;10.10;;;25.00;99.90;;;;;;5087135;28;20016;-73
2022/07/09 09:42:54;;;;;;;15.60;10.80;;;25.00;99.90;;;;;;5084751;28;20074;-74
2022/07/09 09:45:20;;;;;;;14.98;12.40;;;25.00;99.90;;;;;;5085752;28;20538;-73
2022/07/09 09:47:48;;;;;;;15.57;11.60;;;24.90;99.90;;;;;;5089636;28;20015;-73
2022/07/09 09:50:20;;;;;;;15.32;11.98;;;24.90;99.90;;;;;;5085697;28;20023;-73
2022/07/09 09:52:47;;;;;;;17.27;12.23;;;24.80;99.90;;;;;;5089702;28;20046;-73
2022/07/09 09:55:14;;;;;;;15.60;11.75;;;24.80;99.90;;;;;;5086345;28;20020;-73
2022/07/09 09:57:41;;;;;;;13.48;12.05;;;24.90;99.90;;;;;;5083073;28;20029;-72
2022/07/09 10:00:08;;;;;;;17.92;12.77;;;25.00;99.90;;;;;;5120438;27;20366;-74
2022/07/09 10:02:38;;;;;;;15.48;13.05;;;25.00;99.90;;;;;;5088881;28;20059;-73
2022/07/09 10:05:04;;;;;;;12.25;10.07;;;25.20;99.90;;;;;;5084908;28;20013;-73
2022/07/09 10:07:31;;;;;;;17.90;14.05;;;25.50;99.90;;;;;;5085738;28;20120;-74
2022/07/09 10:09:58;;;;;;;21.90;16.00;;;25.50;99.90;;;;;;5085804;28;20012;-72
2022/07/09 10:12:32;;;;;;;18.25;14.38;;;25.50;99.90;;;;;;5086472;28;20038;-73
2022/07/09 10:14:57;;;;;;;16.83;15.07;;;25.40;99.90;;;;;;5084376;28;20028;-73
2022/07/09 10:17:25;;;;;;;18.38;15.27;;;25.50;99.90;;;;;;5084876;28;20039;-73
2022/07/09 10:19:52;;;;;;;20.17;18.02;;;25.50;99.90;;;;;;5096639;28;20016;-73
2022/07/09 10:22:18;;;;;;;19.85;16.73;;;25.60;99.90;;;;;;5087101;28;20036;-73
2022/07/09 10:24:45;;;;;;;23.73;18.08;;;25.50;99.90;;;;;;5081405;28;20384;-73
2022/07/09 10:27:12;;;;;;;21.38;18.60;;;25.40;99.90;;;;;;5087744;28;20035;-73
2022/07/09 10:29:56;;;;;;;18.33;16.52;;;25.30;99.90;;;;;;5090388;28;20031;-73
2022/07/09 10:32:27;;;;;;;21.55;16.08;;;25.20;99.90;;;;;;5084272;28;20028;-73
2022/07/09 10:35:03;;;;;;;20.38;18.15;;;25.20;99.90;;;;;;5084547;28;20033;-73
2022/07/09 10:37:32;;;;;;;23.17;18.42;;;25.20;99.90;;;;;;5082815;28;20024;-74
2022/07/09 10:40:14;;;;;;;24.05;19.75;;;25.00;99.90;;;;;;5086528;28;20023;-73
2022/07/09 10:42:41;;;;;;;22.00;18.20;;;25.00;99.90;;;;;;5083040;28;20024;-73
2022/07/09 10:45:37;;;;;;;24.50;18.95;;;25.00;99.90;;;;;;5086876;28;20028;-73
2022/07/09 10:48:05;;;;;;;20.25;17.13;;;24.90;99.90;;;;;;5082938;28;20170;-73
2022/07/09 10:50:31;;;;;;;18.48;15.45;;;24.80;99.90;;;;;;5084820;28;20027;-74
2022/07/09 10:53:02;;;;;;;20.48;18.27;;;24.80;99.90;;;;;;5087894;28;20038;-76
2022/07/09 10:55:29;;;;;;;22.75;19.48;;;24.80;99.90;;;;;;5086530;28;20434;-74
2022/07/09 10:57:55;;;;;;;21.55;19.42;;;24.70;99.90;;;;;;5082160;28;20019;-73
2022/07/09 11:00:25;;;;;;;22.55;20.15;;;24.60;99.90;;;;;;5079338;28;20472;-73
2022/07/09 11:02:58;;;;;;;23.08;17.88;;;24.60;99.90;;;;;;5082631;28;20115;-73
2022/07/09 11:05:25;;;;;;;21.00;17.70;;;24.60;99.90;;;;;;5085763;28;20032;-72
2022/07/09 11:08:02;;;;;;;19.25;17.25;;;24.60;99.90;;;;;;5082454;28;20144;-74
2022/07/09 11:10:29;;;;;;;18.60;15.75;;;24.40;99.90;;;;;;5082499;28;20091;-73
2022/07/09 11:12:58;;;;;;;21.92;16.65;;;24.40;99.90;;;;;;5086147;28;20063;-73
2022/07/09 11:15:26;;;;;;;23.50;18.98;;;24.40;99.90;;;;;;5088638;28;20036;-73
2022/07/09 11:18:04;;;;;;;21.08;18.77;;;24.50;99.90;;;;;;5086229;28;20073;-74
2022/07/09 11:20:32;;;;;;;21.52;19.00;;;24.60;99.90;;;;;;5094124;28;20104;-74
2022/07/09 11:23:00;;;;;;;20.35;18.13;;;24.70;99.90;;;;;;5094038;28;20104;-72
2022/07/09 11:25:27;;;;;;;20.00;16.63;;;25.10;99.90;;;;;;5094757;28;20056;-72
2022/07/09 11:27:57;;;;;;;17.13;15.23;;;25.30;99.90;;;;;;5094779;28;20032;-73
2022/07/09 11:30:24;;;;;;;15.82;14.27;;;25.50;99.90;;;;;;5094729;28;20019;-73
2022/07/09 11:32:50;;;;;;;14.57;13.15;;;25.40;99.90;;;;;;5093938;28;20136;-74
2022/07/09 11:35:32;;;;;;;14.90;12.25;;;25.60;99.90;;;;;;5094525;28;20043;-73
2022/07/09 11:38:01;;;;;;;13.68;10.90;;;25.80;99.90;;;;;;5093506;28;20021;-74
2022/07/09 11:40:27;;;;;;;12.98;11.68;;;25.90;99.90;;;;;;5092665;28;20012;-76
2022/07/09 11:42:53;;;;;;;13.43;12.20;;;26.00;99.90;;;;;;5089596;28;20039;-75
2022/07/09 11:45:23;;;;;;;14.32;10.60;;;26.30;99.90;;;;;;5074561;28;20477;-77
2022/07/09 11:47:49;;;;;;;11.30;9.75;;;26.60;99.90;;;;;;5076125;28;20024;-74
2022/07/09 11:50:20;;;;;;;11.95;10.38;;;26.50;99.90;;;;;;5092638;28;20155;-74
2022/07/09 11:52:50;;;;;;;11.27;8.57;;;26.20;99.90;;;;;;5093745;28;20089;-75
2022/07/09 11:55:21;;;;;;;9.68;6.97;;;26.20;99.90;;;;;;5093295;28;20122;-74
2022/07/09 11:57:54;;;;;;;9.60;6.53;;;26.10;99.90;;;;;;5093807;28;20028;-75
2022/07/09 12:00:30;;;;;;;10.93;5.55;;;26.40;99.90;;;;;;5093757;28;20032;-75
2022/07/09 12:02:59;;;;;;;14.20;6.15;;;26.40;99.90;;;;;;5093552;28;20393;-74
2022/07/09 12:05:36;;;;;;;5.15;4.57;;;26.20;99.90;;;;;;5092882;28;20358;-75
2022/07/09 12:08:05;;;;;;;5.88;4.45;;;26.60;99.90;;;;;;5093138;28;20073;-77
2022/07/09 12:10:35;;;;;;;4.85;3.53;;;26.60;99.90;;;;;;5093079;28;20027;-74
2022/07/09 12:13:02;;;;;;;3.65;3.13;;;26.50;99.90;;;;;;5089280;28;20043;-75
2022/07/09 12:15:28;;;;;;;5.18;3.20;;;26.30;99.90;;;;;;5092726;28;20085;-74
2022/07/09 12:17:56;;;;;;;3.83;3.42;;;26.20;99.90;;;;;;5091580;28;20024;-75
2022/07/09 12:20:32;;;;;;;6.20;3.45;;;26.20;99.90;;;;;;5093148;28;20032;-74
2022/07/09 12:22:58;;;;;;;3.80;2.90;;;26.50;99.90;;;;;;5093407;28;20024;-74
2022/07/09 12:25:24;;;;;;;5.05;2.50;;;26.60;99.90;;;;;;5093223;28;20034;-75
2022/07/09 12:27:50;;;;;;;3.95;2.55;;;26.80;99.90;;;;;;5093187;28;20107;-75